createdAt,value
2022-09-11T00:00:59.592Z,86.86
2022-09-11T00:06:12.429Z,87.12
2022-09-11T00:08:47.059Z,87.40
2022-09-11T00:11:18.720Z,87.28
2022-09-11T00:13:50.500Z,87.83
2022-09-11T00:16:27.036Z,87.97
2022-09-11T00:18:58.738Z,87.42
2022-09-11T00:21:29.183Z,87.67
2022-09-11T00:23:58.687Z,87.41
2022-09-11T00:26:28.696Z,87.78
2022-09-11T00:29:01.412Z,87.67
2022-09-11T00:31:34.048Z,88.18
2022-09-11T00:34:03.280Z,88.29
2022-09-11T00:36:35.305Z,88.13
2022-09-11T00:39:10.194Z,88.91
2022-09-11T00:41:41.971Z,89.11
2022-09-11T00:44:46.193Z,90.27
2022-09-11T00:47:19.622Z,89.85
2022-09-11T00:49:57.213Z,89.27
2022-09-11T00:52:35.716Z,89.28
2022-09-11T00:55:09.507Z,89.89
2022-09-11T00:57:46.456Z,89.77
2022-09-11T01:00:16.468Z,89.83
2022-09-11T01:02:50.945Z,90.89
2022-09-11T01:05:26.723Z,90.47
2022-09-11T01:08:03.339Z,90.84
2022-09-11T01:10:45.907Z,91.31
2022-09-11T01:13:24.364Z,91.80
2022-09-11T01:16:03.396Z,91.28
2022-09-11T01:18:40.760Z,91.90
2022-09-11T01:21:38.117Z,92.52
2022-09-11T01:24:23.582Z,92.10
2022-09-11T01:27:07.123Z,92.34
2022-09-11T01:29:44.791Z,92.63
2022-09-11T01:32:22.967Z,92.18
2022-09-11T01:34:59.833Z,92.52
2022-09-11T01:37:37.931Z,92.23
2022-09-11T01:40:18.457Z,92.42
2022-09-11T01:45:46.777Z,92.52
2022-09-11T01:48:28.573Z,92.48
2022-09-11T01:50:58.437Z,93.48
2022-09-11T01:53:33.836Z,92.21
2022-09-11T01:56:07.791Z,92.97
2022-09-11T01:58:41.003Z,93.66
2022-09-11T02:01:19.341Z,94.00
2022-09-11T02:03:56.334Z,95.06
2022-09-11T02:06:32.791Z,93.53
2022-09-11T02:09:09.872Z,94.04
2022-09-11T02:11:42.703Z,94.26
2022-09-11T02:14:22.451Z,94.86
2022-09-11T02:16:55.704Z,95.01
2022-09-11T02:19:27.951Z,94.75
2022-09-11T02:21:58.258Z,95.73
2022-09-11T02:24:29.141Z,94.17
2022-09-11T02:27:02.595Z,94.76
2022-09-11T02:29:33.984Z,94.61
2022-09-11T02:32:05.784Z,94.92
2022-09-11T02:34:38.086Z,95.13
2022-09-11T02:37:18.298Z,94.95
2022-09-11T02:40:06.297Z,95.51
2022-09-11T02:43:04.601Z,95.86
2022-09-11T02:45:45.877Z,95.20
2022-09-11T02:48:34.353Z,95.62
2022-09-11T02:51:16.618Z,95.36
2022-09-11T02:53:53.718Z,95.11
2022-09-11T02:56:35.821Z,95.53
2022-09-11T02:59:11.564Z,95.11
2022-09-11T03:01:58.241Z,95.54
2022-09-11T03:04:31.435Z,95.35
2022-09-11T03:07:01.806Z,94.78
2022-09-11T03:09:41.678Z,94.73
2022-09-11T03:12:21.976Z,94.71
2022-09-11T03:14:52.856Z,94.67
2022-09-11T03:17:30.004Z,94.30
2022-09-11T03:20:01.269Z,93.87
2022-09-11T03:22:32.532Z,93.63
2022-09-11T03:25:01.809Z,93.47
2022-09-11T03:27:33.357Z,93.35
2022-09-11T03:30:02.717Z,92.83
2022-09-11T03:32:32.700Z,92.30
2022-09-11T03:35:03.952Z,92.01
2022-09-11T03:37:34.183Z,91.69
2022-09-11T03:40:04.375Z,91.14
2022-09-11T03:42:34.122Z,90.71
2022-09-11T03:45:03.657Z,90.57
2022-09-11T03:47:33.984Z,90.47
2022-09-11T03:50:05.013Z,89.95
2022-09-11T03:52:40.702Z,89.95
2022-09-11T03:55:10.444Z,89.62
2022-09-11T03:57:40.420Z,89.30
2022-09-11T04:00:15.133Z,88.69
2022-09-11T04:02:50.176Z,88.47
2022-09-11T04:05:34.368Z,87.76
2022-09-11T04:08:04.155Z,87.84
2022-09-11T04:10:35.072Z,87.34
2022-09-11T04:13:05.323Z,86.26
2022-09-11T04:15:42.289Z,85.69
2022-09-11T04:18:11.422Z,85.36
2022-09-11T04:20:49.126Z,85.32
2022-09-11T04:23:18.287Z,85.00
2022-09-11T04:25:52.913Z,83.94
2022-09-11T04:28:22.016Z,83.88
2022-09-11T04:30:51.306Z,83.36
2022-09-11T04:33:21.803Z,82.83
2022-09-11T04:35:58.503Z,81.36
2022-09-11T04:38:28.281Z,81.36
2022-09-11T04:41:02.418Z,79.96
2022-09-11T04:43:32.949Z,79.62
2022-09-11T04:46:04.927Z,79.20
2022-09-11T04:48:39.999Z,77.86
2022-09-11T04:51:11.783Z,78.12
2022-09-11T04:53:46.041Z,78.06
2022-09-11T04:56:15.661Z,77.95
2022-09-11T04:58:53.682Z,77.54
2022-09-11T05:01:35.034Z,77.40
2022-09-11T05:04:04.821Z,76.56
2022-09-11T05:06:37.485Z,76.49
2022-09-11T05:09:12.633Z,75.83
2022-09-11T05:11:41.979Z,75.56
2022-09-11T05:14:13.575Z,75.23
2022-09-11T05:16:45.018Z,75.03
2022-09-11T05:19:15.113Z,75.14
2022-09-11T05:21:48.318Z,74.69
2022-09-11T05:24:18.102Z,74.88
2022-09-11T05:26:47.180Z,74.17
2022-09-11T05:29:28.322Z,74.31
2022-09-11T05:32:13.005Z,74.38
2022-09-11T05:34:43.853Z,74.44
2022-09-11T05:37:22.086Z,74.68
2022-09-11T05:39:51.573Z,74.33
2022-09-11T05:42:21.736Z,74.70
2022-09-11T05:44:59.566Z,74.59
2022-09-11T05:47:33.378Z,73.68
2022-09-11T05:50:03.245Z,73.11
2022-09-11T05:52:34.717Z,72.74
2022-09-11T05:55:04.558Z,72.47
2022-09-11T05:57:34.627Z,72.53
2022-09-11T06:00:05.395Z,71.80
2022-09-11T06:02:39.268Z,71.73
2022-09-11T06:05:08.837Z,71.03
2022-09-11T06:07:39.976Z,70.74
2022-09-11T06:10:11.189Z,70.20
2022-09-11T06:12:40.407Z,69.88
2022-09-11T06:17:51.059Z,69.34
2022-09-11T06:20:20.101Z,68.90
2022-09-11T06:23:07.321Z,67.85
2022-09-11T06:25:39.017Z,67.58
2022-09-11T06:28:08.727Z,66.29
2022-09-11T06:31:06.078Z,64.33
2022-09-11T06:33:43.915Z,64.08
2022-09-11T06:36:16.870Z,63.06
2022-09-11T06:38:56.649Z,62.19
2022-09-11T06:41:28.805Z,62.07
2022-09-11T06:44:04.724Z,61.79
2022-09-11T06:46:36.194Z,60.71
2022-09-11T06:49:06.051Z,60.50
2022-09-11T06:51:40.940Z,59.81
2022-09-11T06:54:12.787Z,59.19
2022-09-11T06:56:41.901Z,58.85
2022-09-11T06:59:11.725Z,58.51
2022-09-11T07:01:46.475Z,57.79
2022-09-11T07:04:16.391Z,57.88
2022-09-11T07:06:46.734Z,57.26
2022-09-11T07:09:20.053Z,55.79
2022-09-11T07:11:53.752Z,55.07
2022-09-11T07:14:24.639Z,54.46
2022-09-11T07:17:00.423Z,54.32
2022-09-11T07:19:29.763Z,53.66
2022-09-11T07:22:01.079Z,53.45
2022-09-11T07:24:32.723Z,52.62
2022-09-11T07:27:02.126Z,52.83
2022-09-11T07:29:36.014Z,52.29
2022-09-11T07:32:05.442Z,52.21
2022-09-11T07:34:34.449Z,52.27
2022-09-11T07:37:07.906Z,52.08
2022-09-11T07:39:41.337Z,51.86
2022-09-11T07:42:23.791Z,52.08
2022-09-11T07:44:53.781Z,51.04
2022-09-11T07:47:22.861Z,50.82
2022-09-11T07:49:58.070Z,50.51
2022-09-11T07:52:27.487Z,50.21
2022-09-11T07:55:03.442Z,49.57
2022-09-11T07:57:35.849Z,49.46
2022-09-11T08:00:16.121Z,48.81
2022-09-11T08:02:51.149Z,48.78
2022-09-11T08:05:33.206Z,48.59
2022-09-11T08:08:02.851Z,48.17
2022-09-11T08:10:38.446Z,47.86
2022-09-11T08:13:09.571Z,47.88
2022-09-11T08:15:47.241Z,47.63
2022-09-11T08:18:16.845Z,47.77
2022-09-11T08:20:46.947Z,47.31
2022-09-11T08:23:18.993Z,47.22
2022-09-11T08:25:50.581Z,47.02
2022-09-11T08:28:20.105Z,47.17
2022-09-11T08:30:50.681Z,47.03
2022-09-11T08:33:20.762Z,46.98
2022-09-11T08:35:49.860Z,47.15
2022-09-11T08:38:19.811Z,47.02
2022-09-11T08:40:51.267Z,46.59
2022-09-11T08:43:24.317Z,46.86
2022-09-11T08:46:00.822Z,46.55
2022-09-11T08:48:37.222Z,46.46
2022-09-11T08:51:07.425Z,46.67
2022-09-11T08:53:36.747Z,46.60
2022-09-11T08:56:13.996Z,46.43
2022-09-11T08:59:03.980Z,45.22
2022-09-11T09:01:41.863Z,45.01
2022-09-11T09:04:40.990Z,44.36
2022-09-11T09:07:28.179Z,43.10
2022-09-11T09:10:08.562Z,42.25
2022-09-11T09:12:48.663Z,42.33
2022-09-11T09:15:32.145Z,42.25
2022-09-11T09:18:05.131Z,41.78
2022-09-11T09:20:37.799Z,41.85
2022-09-11T09:23:16.952Z,41.61
2022-09-11T09:25:48.621Z,41.65
2022-09-11T09:28:24.455Z,41.23
2022-09-11T09:30:57.125Z,41.43
2022-09-11T09:33:34.258Z,41.73
2022-09-11T09:36:17.067Z,41.53
2022-09-11T09:38:53.551Z,41.91
2022-09-11T09:41:45.141Z,40.78
2022-09-11T09:44:25.907Z,40.67
2022-09-11T09:46:57.693Z,40.09
2022-09-11T09:49:35.004Z,40.24
2022-09-11T09:52:18.794Z,40.05
2022-09-11T09:54:56.634Z,40.20
2022-09-11T09:57:36.292Z,39.54
2022-09-11T10:00:17.084Z,39.96
2022-09-11T10:02:49.024Z,39.91
2022-09-11T10:05:21.670Z,40.28
2022-09-11T10:07:53.235Z,40.51
2022-09-11T10:10:28.743Z,40.36
2022-09-11T10:13:18.132Z,40.40
2022-09-11T10:15:51.384Z,40.09
2022-09-11T10:18:25.161Z,40.17
2022-09-11T10:20:55.909Z,40.42
2022-09-11T10:23:27.029Z,40.75
2022-09-11T10:25:56.509Z,40.51
2022-09-11T10:28:32.755Z,40.21
2022-09-11T10:31:06.460Z,40.50
2022-09-11T10:33:38.259Z,40.92
2022-09-11T10:36:11.341Z,40.60
2022-09-11T10:38:49.638Z,40.14
2022-09-11T10:41:26.192Z,40.03
2022-09-11T10:43:59.992Z,39.72
2022-09-11T10:46:40.478Z,38.62
2022-09-11T10:49:20.165Z,38.50
2022-09-11T10:52:05.019Z,38.50
2022-09-11T10:54:44.112Z,38.10
2022-09-11T10:57:20.839Z,37.97
2022-09-11T10:59:59.676Z,37.37
2022-09-11T11:02:34.377Z,37.55
2022-09-11T11:05:17.936Z,37.57
2022-09-11T11:08:20.570Z,37.65
2022-09-11T11:11:14.319Z,37.28
2022-09-11T11:13:59.979Z,36.75
2022-09-11T11:16:39.196Z,36.82
2022-09-11T11:19:34.452Z,37.33
2022-09-11T11:22:19.026Z,37.20
2022-09-11T11:25:04.298Z,37.23
2022-09-11T11:28:06.243Z,37.37
2022-09-11T11:30:44.511Z,37.03
2022-09-11T11:33:41.901Z,37.22
2022-09-11T11:36:22.416Z,37.58
2022-09-11T11:41:45.475Z,37.63
2022-09-11T11:44:19.832Z,37.39
2022-09-11T11:46:56.701Z,37.23
2022-09-11T11:49:36.316Z,36.96
2022-09-11T11:52:22.705Z,36.64
2022-09-11T11:55:00.693Z,36.74
2022-09-11T11:57:37.254Z,36.10
2022-09-11T12:00:09.999Z,36.66
2022-09-11T12:02:52.244Z,36.77
2022-09-11T12:05:25.174Z,36.80
2022-09-11T12:07:56.583Z,36.57
2022-09-11T12:10:32.962Z,36.44
2022-09-11T12:13:04.786Z,36.50
2022-09-11T12:15:36.343Z,36.81
2022-09-11T12:18:19.421Z,37.41
2022-09-11T12:20:48.615Z,37.69
2022-09-11T12:24:02.767Z,37.43
2022-09-11T12:26:33.198Z,37.70
2022-09-11T12:29:32.821Z,36.96
2022-09-11T12:32:21.537Z,37.41
2022-09-11T12:35:18.369Z,37.06
2022-09-11T12:37:54.310Z,37.00
2022-09-11T12:40:34.312Z,37.48
2022-09-11T12:43:32.504Z,37.50
2022-09-11T12:46:02.062Z,37.14
2022-09-11T12:48:39.541Z,37.41
2022-09-11T12:57:05.181Z,37.92
2022-09-11T13:02:34.005Z,38.73
2022-09-11T13:05:04.740Z,38.87
2022-09-11T13:07:42.848Z,38.81
2022-09-11T13:10:27.521Z,39.15
2022-09-11T13:12:59.603Z,39.01
2022-09-11T13:15:44.754Z,38.92
2022-09-11T13:18:25.935Z,38.86
2022-09-11T13:21:08.299Z,39.38
2022-09-11T13:23:42.789Z,39.34
2022-09-11T13:26:21.801Z,39.32
2022-09-11T13:28:55.629Z,39.51
2022-09-11T13:31:35.299Z,39.32
2022-09-11T13:34:07.943Z,39.59
2022-09-11T13:36:38.327Z,39.26
2022-09-11T13:39:09.580Z,39.08
2022-09-11T13:41:47.472Z,39.06
2022-09-11T13:44:33.530Z,39.54
2022-09-11T13:47:05.951Z,39.63
2022-09-11T13:49:38.795Z,39.87
2022-09-11T13:52:09.605Z,39.76
2022-09-11T13:54:43.863Z,39.86
2022-09-11T13:57:18.063Z,40.01
2022-09-11T13:59:53.169Z,40.19
2022-09-11T14:02:32.659Z,40.49
2022-09-11T14:05:09.524Z,40.40
2022-09-11T14:07:48.770Z,40.76
2022-09-11T14:10:23.769Z,40.80
2022-09-11T14:12:59.461Z,41.13
2022-09-11T14:15:39.905Z,41.41
2022-09-11T14:18:19.651Z,41.26
2022-09-11T14:20:49.243Z,42.04
2022-09-11T14:23:25.149Z,42.13
2022-09-11T14:26:10.818Z,41.91
2022-09-11T14:28:46.140Z,42.04
2022-09-11T14:31:30.519Z,42.81
2022-09-11T14:34:17.361Z,43.09
2022-09-11T14:36:52.390Z,42.82
2022-09-11T14:39:31.477Z,43.55
2022-09-11T14:42:01.825Z,43.79
2022-09-11T14:44:32.371Z,44.11
2022-09-11T14:47:03.993Z,44.38
2022-09-11T14:49:32.759Z,44.28
2022-09-11T14:52:03.217Z,44.67
2022-09-11T14:54:32.827Z,44.97
2022-09-11T14:57:03.296Z,45.42
2022-09-11T14:59:32.576Z,46.37
2022-09-11T15:02:09.515Z,46.01
2022-09-11T15:04:43.305Z,45.45
2022-09-11T15:07:13.594Z,45.99
2022-09-11T15:09:43.142Z,46.30
2022-09-11T15:12:19.276Z,46.18
2022-09-11T15:14:56.863Z,46.62
2022-09-11T15:17:30.901Z,47.59
2022-09-11T15:20:00.838Z,47.35
2022-09-11T15:22:30.900Z,47.69
2022-09-11T15:25:05.180Z,47.77
2022-09-11T15:27:34.503Z,48.11
2022-09-11T15:30:03.592Z,47.89
2022-09-11T15:32:35.096Z,48.07
2022-09-11T15:35:05.180Z,48.30
2022-09-11T15:37:35.523Z,48.72
2022-09-11T15:40:05.209Z,48.94
2022-09-11T15:42:39.533Z,48.68
2022-09-11T15:45:12.925Z,48.82
2022-09-11T15:47:44.104Z,49.04
2022-09-11T15:50:17.708Z,49.12
2022-09-11T15:52:48.205Z,48.86
2022-09-11T15:55:19.335Z,49.34
2022-09-11T15:57:48.560Z,49.43
2022-09-11T16:00:17.983Z,49.71
2022-09-11T16:02:53.762Z,49.80
2022-09-11T16:05:22.835Z,49.63
2022-09-11T16:07:52.413Z,50.23
2022-09-11T16:10:21.659Z,50.54
2022-09-11T16:12:52.083Z,50.49
2022-09-11T16:15:22.958Z,50.73
2022-09-11T16:17:54.306Z,51.20
2022-09-11T16:20:24.775Z,51.11
2022-09-11T16:22:54.363Z,50.90
2022-09-11T16:25:23.478Z,51.40
2022-09-11T16:27:53.049Z,51.88
2022-09-11T16:33:14.153Z,51.81
2022-09-11T16:35:43.353Z,51.88
2022-09-11T16:38:12.563Z,52.13
2022-09-11T16:40:42.026Z,52.17
2022-09-11T16:43:11.631Z,52.24
2022-09-11T16:45:43.741Z,52.49
2022-09-11T16:48:16.669Z,52.39
2022-09-11T16:50:55.175Z,52.97
2022-09-11T16:53:25.020Z,53.32
2022-09-11T16:55:55.054Z,53.51
2022-09-11T16:58:24.892Z,53.97
2022-09-11T17:00:54.228Z,54.08
2022-09-11T17:03:25.587Z,54.46
2022-09-11T17:05:57.253Z,54.67
2022-09-11T17:08:26.442Z,54.40
2022-09-11T17:10:57.848Z,54.21
2022-09-11T17:13:28.490Z,53.96
2022-09-11T17:16:03.393Z,54.09
2022-09-11T17:18:35.350Z,54.14
2022-09-11T17:21:07.242Z,54.42
2022-09-11T17:23:38.865Z,54.08
2022-09-11T17:26:09.290Z,54.45
2022-09-11T17:28:39.103Z,55.07
2022-09-11T17:31:10.086Z,55.18
2022-09-11T17:33:41.921Z,55.53
2022-09-11T17:36:13.025Z,55.63
2022-09-11T17:38:49.692Z,55.54
2022-09-11T17:41:20.601Z,55.94
2022-09-11T17:43:50.548Z,56.18
2022-09-11T17:46:21.729Z,56.24
2022-09-11T17:48:52.994Z,57.03
2022-09-11T17:51:24.798Z,56.94
2022-09-11T17:53:54.982Z,56.35
2022-09-11T17:56:31.869Z,57.64
2022-09-11T17:59:03.082Z,57.75
2022-09-11T18:01:32.383Z,58.27
2022-09-11T18:04:05.555Z,58.53
2022-09-11T18:06:41.475Z,58.78
2022-09-11T18:09:15.657Z,59.06
2022-09-11T18:11:47.266Z,59.22
2022-09-11T18:14:23.200Z,58.80
2022-09-11T18:16:57.695Z,59.58
2022-09-11T18:19:35.042Z,59.34
2022-09-11T18:22:04.352Z,58.95
2022-09-11T18:24:39.803Z,59.27
2022-09-11T18:27:11.256Z,59.30
2022-09-11T18:29:45.597Z,59.30
2022-09-11T18:32:21.761Z,59.42
2022-09-11T18:34:59.868Z,59.16
2022-09-11T18:37:29.767Z,59.12
2022-09-11T18:40:00.018Z,59.46
2022-09-11T18:42:29.658Z,59.80
2022-09-11T18:44:59.949Z,59.74
2022-09-11T18:47:30.344Z,60.24
2022-09-11T18:50:03.504Z,60.31
2022-09-11T18:52:33.974Z,60.49
2022-09-11T18:55:03.473Z,60.72
2022-09-11T18:57:38.627Z,60.92
2022-09-11T19:00:13.951Z,61.35
2022-09-11T19:02:43.294Z,61.05
2022-09-11T19:05:15.642Z,61.92
2022-09-11T19:07:46.185Z,62.47
2022-09-11T19:10:16.125Z,62.06
2022-09-11T19:12:45.577Z,61.89
2022-09-11T19:15:16.396Z,62.08
2022-09-11T19:17:47.900Z,61.97
2022-09-11T19:20:20.762Z,62.14
2022-09-11T19:22:50.008Z,61.88
2022-09-11T19:25:19.342Z,61.81
2022-09-11T19:28:00.318Z,62.40
2022-09-11T19:30:29.431Z,62.22
2022-09-11T19:33:00.452Z,62.32
2022-09-11T19:35:31.719Z,62.76
2022-09-11T19:38:01.313Z,62.56
2022-09-11T19:40:30.552Z,62.73
2022-09-11T19:43:04.680Z,62.98
2022-09-11T19:45:39.268Z,63.23
2022-09-11T19:48:14.352Z,63.40
2022-09-11T19:50:47.608Z,63.70
2022-09-11T19:53:21.852Z,63.61
2022-09-11T19:55:55.501Z,63.98
2022-09-11T19:58:25.572Z,63.68
2022-09-11T20:00:55.108Z,64.04
2022-09-11T20:03:30.238Z,64.37
2022-09-11T20:06:02.347Z,64.10
2022-09-11T20:08:31.935Z,64.26
2022-09-11T20:11:03.271Z,64.52
2022-09-11T20:13:37.635Z,64.52
2022-09-11T20:16:14.528Z,65.13
2022-09-11T20:18:44.174Z,64.56
2022-09-11T20:21:17.231Z,64.85
2022-09-11T20:23:47.440Z,64.70
2022-09-11T20:26:23.832Z,65.15
2022-09-11T20:28:57.535Z,64.98
2022-09-11T20:31:29.424Z,65.29
2022-09-11T20:34:04.231Z,65.13
2022-09-11T20:36:35.451Z,65.14
2022-09-11T20:39:04.667Z,65.24
2022-09-11T20:41:35.345Z,65.73
2022-09-11T20:44:05.846Z,65.57
2022-09-11T20:46:43.080Z,66.03
2022-09-11T20:49:17.986Z,65.79
2022-09-11T20:51:49.222Z,66.56
2022-09-11T20:54:18.411Z,65.77
2022-09-11T20:56:47.914Z,65.66
2022-09-11T20:59:17.130Z,65.49
2022-09-11T21:01:46.363Z,65.64
2022-09-11T21:04:15.513Z,65.47
2022-09-11T21:06:44.978Z,65.27
2022-09-11T21:09:16.906Z,65.12
2022-09-11T21:11:45.717Z,64.76
2022-09-11T21:14:16.751Z,64.71
2022-09-11T21:16:46.152Z,64.62
2022-09-11T21:19:15.348Z,64.52
2022-09-11T21:21:44.427Z,64.51
2022-09-11T21:24:21.074Z,64.40
2022-09-11T21:26:50.148Z,64.58
2022-09-11T21:29:19.185Z,64.29
2022-09-11T21:31:48.406Z,64.34
2022-09-11T21:34:18.077Z,64.50
2022-09-11T21:36:54.029Z,64.52
2022-09-11T21:39:24.972Z,64.85
2022-09-11T21:44:39.243Z,64.33
2022-09-11T21:47:08.380Z,64.85
2022-09-11T21:49:37.630Z,64.60
2022-09-11T21:52:07.218Z,64.80
2022-09-11T21:54:38.801Z,65.50
2022-09-11T21:57:08.054Z,65.33
2022-09-11T21:59:37.107Z,65.05
2022-09-11T22:02:08.364Z,65.46
2022-09-11T22:04:37.532Z,65.34
2022-09-11T22:07:06.700Z,65.63
2022-09-11T22:09:37.949Z,65.63
2022-09-11T22:12:12.553Z,65.58
2022-09-11T22:14:43.853Z,65.49
2022-09-11T22:17:13.428Z,65.22
2022-09-11T22:19:45.489Z,65.28
2022-09-11T22:22:14.825Z,65.54
2022-09-11T22:24:46.219Z,65.35
2022-09-11T22:27:20.491Z,65.64
2022-09-11T22:29:49.641Z,65.64
2022-09-11T22:32:18.629Z,65.41
2022-09-11T22:34:57.740Z,65.97
2022-09-11T22:37:26.974Z,66.15
2022-09-11T22:39:58.071Z,66.45
2022-09-11T22:42:27.222Z,66.03
2022-09-11T22:44:56.361Z,65.97
2022-09-11T22:47:32.846Z,66.36
2022-09-11T22:50:02.000Z,66.41
2022-09-11T22:52:32.746Z,66.43
2022-09-11T22:55:03.976Z,67.09
2022-09-11T22:57:33.391Z,66.66
2022-09-11T23:00:02.518Z,66.89
2022-09-11T23:02:33.811Z,67.16
2022-09-11T23:05:22.105Z,67.54
2022-09-11T23:07:56.575Z,67.02
2022-09-11T23:10:27.719Z,67.21
2022-09-11T23:12:56.948Z,67.25
2022-09-11T23:15:31.422Z,67.22
2022-09-11T23:18:00.565Z,67.25
2022-09-11T23:20:31.598Z,67.57
2022-09-11T23:23:01.146Z,67.06
2022-09-11T23:25:34.743Z,67.58
2022-09-11T23:30:40.564Z,67.64
2022-09-11T23:33:09.776Z,68.09
2022-09-11T23:35:39.930Z,67.91
2022-09-11T23:38:10.037Z,69.00
2022-09-11T23:40:41.344Z,69.33
2022-09-11T23:43:10.514Z,69.39
2022-09-11T23:45:39.623Z,69.54
2022-09-11T23:48:13.814Z,70.86
2022-09-11T23:50:42.976Z,71.07
2022-09-11T23:53:12.001Z,70.77
2022-09-11T23:58:19.659Z,71.48
